Time;durP1;ratioP1;P1;durP2;ratioP2;P2;SDS_P1;SDS_P2;PMS_P1;PMS_P2;Temp;Humidity;BMP_temperature;BMP_pressure;BME280_temperature;BME280_humidity;BME280_pressure;Samples;Min_cycle;Max_cycle;Signal;HPM_P1;HPM_P2
2022/05/19 00:01:23;;;;;;;29.15;2.78;;;;;;;24.29;42.63;100142.78;7304275;19;129872;-38
2022/05/19 00:03:49;;;;;;;17.20;1.77;;;;;;;24.29;43.30;100144.59;7314790;19;129831;-38
2022/05/19 00:06:15;;;;;;;23.58;2.63;;;;;;;24.26;42.87;100140.44;7310682;19;154653;-40
2022/05/19 00:08:40;;;;;;;19.77;2.00;;;;;;;24.27;42.42;100136.84;7316351;19;128947;-40
2022/05/19 00:11:12;;;;;;;43.37;4.00;;;;;;;24.27;43.18;100138.63;7311283;19;129785;-38
2022/05/19 00:13:38;;;;;;;19.95;2.13;;;;;;;24.30;42.36;100131.28;7316022;19;130298;-39
2022/05/19 00:16:05;;;;;;;26.53;2.77;;;;;;;24.28;42.55;100120.09;7310730;19;130347;-40
2022/05/19 00:18:31;;;;;;;10.27;1.27;;;;;;;24.30;42.38;100131.28;7316620;19;129077;-39
2022/05/19 00:20:56;;;;;;;41.07;3.97;;;;;;;24.31;43.05;100126.88;7316204;19;130231;-40
2022/05/19 00:23:22;;;;;;;33.30;3.13;;;;;;;24.25;43.00;100123.00;7313412;19;158396;-38
2022/05/19 00:25:47;;;;;;;28.30;2.87;;;;;;;24.30;43.04;100126.03;7312588;19;159631;-40
2022/05/19 00:28:13;;;;;;;46.73;4.33;;;;;;;24.30;42.36;100131.28;7313287;19;150956;-40
2022/05/19 00:30:38;;;;;;;26.60;2.60;;;;;;;24.30;43.09;100131.28;7309446;19;154030;-38
2022/05/19 00:33:04;;;;;;;23.83;2.28;;;;;;;24.28;42.95;100125.34;7312970;19;154735;-40
2022/05/19 00:35:29;;;;;;;41.53;4.07;;;;;;;24.29;42.77;100119.13;7314945;19;130896;-39
2022/05/19 00:37:54;;;;;;;14.13;1.33;;;;;;;24.28;42.67;100125.34;7314572;19;155047;-38
2022/05/19 00:40:22;;;;;;;36.65;3.50;;;;;;;24.29;42.61;100124.41;7312897;19;154185;-39
2022/05/19 00:42:47;;;;;;;29.25;2.90;;;;;;;24.29;42.52;100123.56;7315173;19;129336;-39
2022/05/19 00:45:17;;;;;;;29.73;2.80;;;;;;;24.30;42.80;100123.41;7314548;19;130822;-37
2022/05/19 00:47:54;;;;;;;21.65;2.05;;;;;;;24.30;42.67;100115.53;7315142;19;131624;-39
2022/05/19 00:50:25;;;;;;;25.90;2.35;;;;;;;24.31;42.27;100114.53;7313673;19;130096;-37
2022/05/19 00:52:55;;;;;;;40.58;3.67;;;;;;;24.29;42.44;100119.13;7314122;19;129621;-37
2022/05/19 00:55:26;;;;;;;54.80;5.00;;;;;;;24.31;43.07;100114.53;7310881;19;130574;-38
2022/05/19 00:57:59;;;;;;;17.88;1.77;;;;;;;24.31;42.58;100106.66;7314187;19;129666;-38
2022/05/19 01:00:26;;;;;;;24.50;2.30;;;;;;;24.31;42.92;100111.91;7314834;19;129743;-38
2022/05/19 01:02:57;;;;;;;30.67;2.70;;;;;;;24.27;42.82;100115.81;7316220;19;130236;-37
2022/05/19 01:05:31;;;;;;;36.35;3.75;;;;;;;24.29;42.59;100116.50;7309421;19;129688;-38
2022/05/19 01:08:03;;;;;;;23.83;2.47;;;;;;;24.33;42.12;100109.97;7312930;19;128914;-38
2022/05/19 01:10:28;;;;;;;40.78;3.75;;;;;;;24.32;43.11;100112.75;7311218;19;131369;-38
2022/05/19 01:12:54;;;;;;;43.13;4.00;;;;;;;24.30;42.67;100109.44;7314795;19;135218;-38
2022/05/19 01:15:20;;;;;;;33.20;3.30;;;;;;;24.32;42.91;100102.25;7305579;19;157488;-38
2022/05/19 01:17:45;;;;;;;57.00;5.23;;;;;;;24.31;42.58;100106.66;7309688;19;129960;-37
2022/05/19 01:20:17;;;;;;;21.80;2.07;;;;;;;24.31;42.89;100101.41;7310377;19;129918;-37
2022/05/19 01:22:58;;;;;;;21.83;2.20;;;;;;;24.31;42.26;100101.41;7313377;19;130164;-37
2022/05/19 01:25:49;;;;;;;43.33;4.18;;;;;;;24.31;42.69;100095.34;7313654;19;129424;-37
2022/05/19 01:28:15;;;;;;;40.38;3.78;;;;;;;24.32;42.84;100095.19;7311726;19;129306;-37
2022/05/19 01:30:41;;;;;;;25.48;2.38;;;;;;;24.35;42.50;100096.69;7311942;19;129043;-38
2022/05/19 01:33:07;;;;;;;26.53;2.63;;;;;;;24.30;42.65;100094.50;7314327;19;129776;-37
2022/05/19 01:35:33;;;;;;;35.17;3.47;;;;;;;24.34;43.11;100089.78;7310547;19;129282;-38
2022/05/19 01:38:06;;;;;;;17.85;1.48;;;;;;;24.32;42.77;100087.31;7313522;19;129090;-37
2022/05/19 01:40:57;;;;;;;19.05;1.80;;;;;;;24.34;42.88;100090.63;7314422;19;130423;-38
2022/05/19 01:43:30;;;;;;;35.90;3.45;;;;;;;24.32;42.72;100091.72;7311287;19;130520;-37
2022/05/19 01:46:22;;;;;;;21.80;1.92;;;;;;;24.32;42.18;100091.72;7312195;19;130941;-37
2022/05/19 01:49:16;;;;;;;28.25;2.45;;;;;;;24.34;42.83;100090.63;7315317;19;129705;-38
2022/05/19 01:51:58;;;;;;;45.13;4.40;;;;;;;24.27;42.48;100084.28;7309827;19;130039;-37
2022/05/19 01:54:57;;;;;;;25.13;2.33;;;;;;;24.33;42.72;100088.13;7308635;19;130601;-37
2022/05/19 01:57:48;;;;;;;18.05;2.00;;;;;;;24.32;42.21;100087.31;7309256;19;129442;-37
2022/05/19 02:00:22;;;;;;;52.05;5.35;;;;;;;24.32;42.87;100089.94;7306937;19;130614;-37
2022/05/19 02:02:57;;;;;;;31.17;2.78;;;;;;;24.33;42.42;100082.84;7303514;19;130366;-37
2022/05/19 02:05:54;;;;;;;36.75;3.42;;;;;;;24.35;42.66;100080.91;7309710;19;129474;-37
2022/05/19 02:08:35;;;;;;;83.70;8.00;;;;;;;24.34;42.11;100076.66;7311172;19;129667;-38
2022/05/19 02:11:09;;;;;;;20.67;1.98;;;;;;;24.33;42.55;100078.44;7310593;19;128976;-37
2022/05/19 02:13:34;;;;;;;26.42;2.45;;;;;;;24.33;42.88;100073.19;7312095;19;129994;-38
2022/05/19 02:16:05;;;;;;;32.43;3.07;;;;;;;24.28;42.33;100069.31;7309603;19;130262;-37
2022/05/19 02:18:31;;;;;;;24.48;2.20;;;;;;;24.32;42.29;100076.81;7308669;19;129902;-37
2022/05/19 02:20:59;;;;;;;31.15;2.67;;;;;;;24.34;42.51;100072.22;7309537;19;129381;-41
2022/05/19 02:23:26;;;;;;;19.33;1.77;;;;;;;24.35;42.20;100073.88;7312027;19;129088;-39
2022/05/19 02:25:53;;;;;;;20.10;1.75;;;;;;;24.35;42.98;100066.00;7309349;19;130635;-40
2022/05/19 02:28:32;;;;;;;18.65;1.67;;;;;;;24.35;42.09;100071.25;7309651;19;130471;-39
2022/05/19 02:30:58;;;;;;;19.90;1.92;;;;;;;24.35;42.17;100062.53;7307907;19;129078;-40
2022/05/19 02:33:23;;;;;;;25.05;2.47;;;;;;;24.32;42.57;100061.03;7310661;19;129745;-40
2022/05/19 02:35:49;;;;;;;14.30;1.48;;;;;;;24.36;42.54;100062.38;7304024;19;158492;-40
2022/05/19 02:38:16;;;;;;;34.20;3.10;;;;;;;24.32;42.56;100055.78;7312052;19;129679;-39
2022/05/19 02:40:42;;;;;;;28.05;2.45;;;;;;;24.33;42.14;100061.84;7308024;19;129511;-40
2022/05/19 02:43:08;;;;;;;24.58;2.53;;;;;;;24.33;42.65;100070.56;7311282;19;129113;-40
2022/05/19 02:45:34;;;;;;;35.40;3.13;;;;;;;24.34;42.62;100079.28;7308083;19;130842;-40
2022/05/19 02:48:00;;;;;;;18.53;1.83;;;;;;;24.33;42.70;100070.56;7311265;19;129608;-39
2022/05/19 02:50:26;;;;;;;28.83;2.63;;;;;;;24.32;42.88;100082.06;7309959;19;129368;-40
2022/05/19 02:52:52;;;;;;;19.60;1.83;;;;;;;24.37;42.86;100084.25;7309959;19;129262;-41
2022/05/19 02:55:18;;;;;;;48.70;4.97;;;;;;;24.37;42.36;100077.19;7308360;19;130182;-39
2022/05/19 02:57:44;;;;;;;30.80;3.13;;;;;;;24.36;42.67;100083.41;7306461;19;132930;-39
2022/05/19 03:00:20;;;;;;;26.55;2.70;;;;;;;24.38;42.49;100081.47;7308915;19;129866;-39
2022/05/19 03:02:45;;;;;;;20.30;2.17;;;;;;;24.32;42.81;100076.81;7310143;19;131151;-40
2022/05/19 03:05:14;;;;;;;32.00;2.70;;;;;;;24.38;42.23;100073.56;7310434;19;130714;-40
2022/05/19 03:07:40;;;;;;;22.50;2.30;;;;;;;24.34;42.54;100080.13;7306878;19;130557;-38
2022/05/19 03:10:05;;;;;;;26.60;2.60;;;;;;;24.37;42.61;100092.13;7308778;19;154522;-38
2022/05/19 03:12:31;;;;;;;23.17;2.23;;;;;;;24.34;42.50;100082.75;7309576;19;130654;-39
2022/05/19 03:14:57;;;;;;;14.77;1.30;;;;;;;24.39;42.58;100080.47;7309823;19;130123;-41
2022/05/19 03:17:24;;;;;;;80.73;7.17;;;;;;;24.39;41.98;100091.00;7302139;19;130891;-40
2022/05/19 03:19:53;;;;;;;54.80;4.85;;;;;;;24.37;42.61;100090.34;7304467;19;130699;-36
2022/05/19 03:22:18;;;;;;;73.25;6.78;;;;;;;24.39;42.55;100091.00;7306502;19;131237;-38
2022/05/19 03:24:44;;;;;;;24.93;2.60;;;;;;;24.38;42.62;100091.97;7310045;19;129614;-38
2022/05/19 03:27:09;;;;;;;21.43;2.17;;;;;;;24.36;42.50;100098.38;7303079;19;154492;-40
2022/05/19 03:29:34;;;;;;;25.27;2.53;;;;;;;24.39;42.60;100104.13;7303350;19;155193;-39
2022/05/19 03:32:00;;;;;;;3.80;0.73;;;;;;;24.38;42.77;100106.91;7309889;19;129036;-37
2022/05/19 03:34:25;;;;;;;36.20;3.22;;;;;;;24.33;42.65;100106.50;7310234;19;130116;-41
2022/05/19 03:36:50;;;;;;;18.83;1.90;;;;;;;24.37;42.16;100100.84;7306174;19;141027;-40
2022/05/19 03:39:16;;;;;;;17.58;1.77;;;;;;;24.37;42.62;100106.09;7307728;19;154456;-39
2022/05/19 03:41:41;;;;;;;27.40;2.47;;;;;;;24.38;42.15;100099.84;7303431;19;130089;-40
2022/05/19 03:44:06;;;;;;;21.37;2.17;;;;;;;24.38;42.54;100102.47;7307337;19;159643;-38
2022/05/19 03:46:32;;;;;;;25.45;2.33;;;;;;;24.38;42.20;100097.22;7306406;19;129360;-40
2022/05/19 03:48:57;;;;;;;21.50;2.17;;;;;;;24.40;42.36;100107.59;7308592;19;129166;-41
2022/05/19 03:51:26;;;;;;;20.70;2.03;;;;;;;24.39;42.13;100108.59;7304033;19;129779;-40
2022/05/19 03:53:52;;;;;;;49.40;4.28;;;;;;;24.38;42.55;100101.66;7304779;19;129191;-38
2022/05/19 03:56:18;;;;;;;28.00;2.83;;;;;;;24.39;42.29;100098.88;7308021;19;129972;-41
2022/05/19 03:58:44;;;;;;;25.70;2.60;;;;;;;24.34;42.35;100101.13;7307806;19;130279;-42
2022/05/19 04:01:10;;;;;;;119.03;11.83;;;;;;;24.38;42.49;100105.13;7292840;19;129825;-41
2022/05/19 04:03:35;;;;;;;27.73;2.57;;;;;;;24.35;42.65;100110.66;7298822;19;131909;-41
2022/05/19 04:06:01;;;;;;;29.53;2.47;;;;;;;24.39;42.17;100119.91;7307429;19;129853;-40
2022/05/19 04:08:26;;;;;;;38.87;3.23;;;;;;;24.36;42.61;100114.94;7308979;19;129131;-41
2022/05/19 04:10:52;;;;;;;18.90;1.70;;;;;;;24.43;42.77;100117.81;7302357;19;130040;-41
2022/05/19 04:13:17;;;;;;;29.07;2.80;;;;;;;24.40;42.63;100116.31;7304729;19;130147;-41
2022/05/19 04:15:43;;;;;;;28.75;2.58;;;;;;;24.40;42.46;100116.31;7300489;19;158826;-38
2022/05/19 04:18:08;;;;;;;12.45;1.42;;;;;;;24.38;42.21;100118.25;7309427;19;129071;-40
2022/05/19 04:20:33;;;;;;;20.97;2.00;;;;;;;24.38;42.81;100115.63;7306546;19;154047;-40
2022/05/19 04:23:00;;;;;;;14.53;1.40;;;;;;;24.41;42.60;100115.34;7307947;19;158141;-38
2022/05/19 04:25:26;;;;;;;43.00;4.10;;;;;;;24.39;42.11;100122.53;7307633;19;129375;-39
2022/05/19 04:27:54;;;;;;;30.85;2.78;;;;;;;24.32;42.53;100116.22;7304941;19;129784;-41
2022/05/19 04:30:20;;;;;;;15.90;1.80;;;;;;;24.38;42.17;100123.50;7308269;19;129180;-40
2022/05/19 04:32:46;;;;;;;19.67;1.75;;;;;;;24.40;42.28;100123.38;7304662;19;134218;-39
2022/05/19 04:35:13;;;;;;;20.17;2.17;;;;;;;24.31;42.17;100109.28;7306092;19;129704;-38
2022/05/19 04:37:38;;;;;;;;;;;;;;;24.35;42.63;100123.81;7303020;19;130783;-40
2022/05/19 04:40:05;;;;;;;27.37;2.63;;;;;;;24.41;42.33;100123.22;7303977;19;130871;-39
2022/05/19 04:42:30;;;;;;;;;;;;;;;24.37;42.53;100127.13;7311099;19;131572;-40
2022/05/19 04:44:56;;;;;;;18.97;1.80;;;;;;;24.36;42.74;100125.44;7312218;19;130412;-40
2022/05/19 04:47:22;;;;;;;28.90;2.53;;;;;;;24.36;42.74;100125.44;7312560;19;129889;-40
2022/05/19 04:49:47;;;;;;;16.23;1.48;;;;;;;24.37;42.67;100132.38;7306394;19;129282;-41
2022/05/19 04:52:12;;;;;;;26.13;2.50;;;;;;;24.37;41.99;100134.16;7312384;19;157043;-41
2022/05/19 04:54:38;;;;;;;27.98;2.50;;;;;;;24.38;42.24;100144.53;7314293;19;153248;-37
2022/05/19 04:57:04;;;;;;;35.72;3.17;;;;;;;24.35;42.58;100133.47;7302460;19;131505;-39
2022/05/19 04:59:30;;;;;;;40.35;3.70;;;;;;;24.34;41.89;100135.31;7315050;19;129058;-39
2022/05/19 05:01:56;;;;;;;17.87;1.73;;;;;;;24.36;42.17;100137.78;7314757;19;130104;-41
2022/05/19 05:04:23;;;;;;;33.07;3.10;;;;;;;24.36;41.76;100137.78;7310848;19;155414;-41
2022/05/19 05:06:48;;;;;;;36.42;3.25;;;;;;;24.36;42.72;100135.16;7312270;19;129680;-40
2022/05/19 05:09:13;;;;;;;71.97;6.60;;;;;;;24.25;42.09;100122.19;7312781;19;129604;-43
2022/05/19 05:11:41;;;;;;;44.97;4.13;;;;;;;24.38;42.05;100128.78;7308637;19;157595;-39
2022/05/19 05:14:07;;;;;;;27.65;2.78;;;;;;;24.39;42.05;100134.88;7313359;19;131360;-37
2022/05/19 05:16:32;;;;;;;21.87;2.23;;;;;;;24.40;41.91;100131.25;7311479;19;129942;-38
2022/05/19 05:18:58;;;;;;;17.70;1.83;;;;;;;24.36;42.26;100135.97;7316446;19;130119;-38
2022/05/19 05:21:23;;;;;;;34.83;3.43;;;;;;;24.37;42.22;100136.81;7311839;19;159802;-41
2022/05/19 05:23:48;;;;;;;37.50;4.27;;;;;;;24.36;42.35;100141.22;7309269;19;159094;-40
2022/05/19 05:26:13;;;;;;;40.53;3.73;;;;;;;24.39;42.17;100140.94;7310375;19;155338;-37
2022/05/19 05:28:39;;;;;;;22.10;2.20;;;;;;;24.37;41.84;100137.63;7312445;19;153128;-42
2022/05/19 05:31:04;;;;;;;18.40;2.00;;;;;;;24.29;41.98;100123.56;7312537;19;158894;-40
2022/05/19 05:33:30;;;;;;;64.50;6.23;;;;;;;24.38;41.54;100130.56;7308963;19;130366;-40
2022/05/19 05:35:55;;;;;;;30.00;3.00;;;;;;;24.40;42.11;100139.97;7309674;19;131166;-38
2022/05/19 05:38:21;;;;;;;104.80;9.40;;;;;;;24.38;41.60;100143.69;7309361;19;155018;-38
2022/05/19 05:40:50;;;;;;;20.00;2.07;;;;;;;24.37;42.34;100148.16;7311085;19;159519;-40
2022/05/19 05:43:17;;;;;;;20.08;2.13;;;;;;;24.41;41.74;100149.50;7313169;19;131093;-40
2022/05/19 05:45:43;;;;;;;33.00;3.28;;;;;;;24.38;42.16;100144.53;7307910;19;130607;-40
2022/05/19 05:48:09;;;;;;;11.73;1.60;;;;;;;24.38;41.62;100149.78;7310953;19;129735;-39
2022/05/19 05:50:34;;;;;;;22.53;2.47;;;;;;;24.39;41.67;100145.38;7313201;19;129589;-38
2022/05/19 05:53:00;;;;;;;26.80;2.77;;;;;;;24.37;41.90;100142.91;7309413;19;157450;-38
2022/05/19 05:55:25;;;;;;;53.13;4.97;;;;;;;24.37;41.53;100148.16;7313338;19;130340;-38
2022/05/19 05:57:50;;;;;;;9.20;1.40;;;;;;;24.39;41.83;100148.81;7311920;19;154187;-38
2022/05/19 06:00:16;;;;;;;24.03;2.70;;;;;;;24.40;42.47;100142.59;7312405;19;159202;-38
2022/05/19 06:02:41;;;;;;;29.57;2.97;;;;;;;24.36;41.62;100141.22;7311356;19;130243;-37
2022/05/19 06:05:07;;;;;;;34.20;3.33;;;;;;;24.38;42.05;100139.28;7313162;19;129058;-39
2022/05/19 06:07:32;;;;;;;71.37;6.57;;;;;;;24.36;41.98;100141.22;7310109;19;129392;-39
2022/05/19 06:09:57;;;;;;;18.93;2.13;;;;;;;24.36;42.22;100146.47;7311444;19;152510;-38
2022/05/19 06:12:24;;;;;;;16.87;2.00;;;;;;;24.35;42.11;100150.09;7312759;19;130646;-39
2022/05/19 06:14:49;;;;;;;18.42;1.95;;;;;;;24.38;41.99;100149.78;7309953;19;130667;-39
2022/05/19 06:17:14;;;;;;;29.20;2.97;;;;;;;24.31;41.83;100143.44;7309912;19;129544;-39
2022/05/19 06:19:40;;;;;;;25.88;2.72;;;;;;;24.33;42.03;100136.25;7310124;19;130972;-39
2022/05/19 06:22:05;;;;;;;23.60;2.75;;;;;;;24.37;41.84;100156.03;7309909;19;130370;-39
2022/05/19 06:24:32;;;;;;;53.30;5.30;;;;;;;24.38;42.68;100155.06;7306777;19;147331;-40
2022/05/19 06:26:58;;;;;;;15.25;1.60;;;;;;;24.38;42.18;100149.78;7311584;19;129752;-40
2022/05/19 06:29:23;;;;;;;22.63;2.30;;;;;;;24.38;42.25;100143.69;7312498;19;158565;-38
2022/05/19 06:31:48;;;;;;;55.90;5.27;;;;;;;24.38;42.20;100149.78;7303599;19;160009;-37
2022/05/19 06:34:14;;;;;;;29.90;3.03;;;;;;;24.39;42.05;100150.63;7312017;19;130239;-38
2022/05/19 06:36:39;;;;;;;44.87;4.13;;;;;;;24.40;41.76;100153.13;7307611;19;154137;-37
2022/05/19 06:39:05;;;;;;;18.77;1.90;;;;;;;24.39;42.16;100148.00;7311133;19;158981;-37
2022/05/19 06:44:16;;;;;;;29.00;3.05;;;;;;;24.39;41.82;100145.38;7311384;19;130307;-38
2022/05/19 06:46:41;;;;;;;28.73;2.80;;;;;;;24.37;41.89;100158.66;7308633;19;129241;-38
2022/05/19 06:49:07;;;;;;;27.83;2.80;;;;;;;24.38;42.18;100154.22;7309786;19;157332;-38
2022/05/19 06:51:33;;;;;;;29.03;2.83;;;;;;;24.39;42.52;100153.25;7306811;19;130999;-37
2022/05/19 06:53:58;;;;;;;27.20;2.78;;;;;;;24.40;42.16;100152.28;7309749;19;130023;-38
2022/05/19 06:56:23;;;;;;;40.97;4.10;;;;;;;24.36;42.59;100143.84;7306743;19;130012;-38
2022/05/19 06:58:49;;;;;;;24.33;2.40;;;;;;;24.37;41.82;100140.28;7308166;19;158240;-37
2022/05/19 07:01:14;;;;;;;27.93;2.93;;;;;;;24.36;42.41;100141.22;7310802;19;129961;-38
2022/05/19 07:03:39;;;;;;;44.10;4.37;;;;;;;24.39;42.06;100143.56;7308610;19;154386;-39
2022/05/19 07:06:05;;;;;;;14.17;1.73;;;;;;;24.40;42.51;100142.59;7308059;19;140497;-37
2022/05/19 07:08:31;;;;;;;29.40;3.05;;;;;;;24.39;41.73;100140.94;7311113;19;132394;-38
2022/05/19 07:10:56;;;;;;;18.27;1.80;;;;;;;24.41;42.39;100149.50;7310899;19;129770;-38
2022/05/19 07:13:21;;;;;;;26.83;2.78;;;;;;;24.40;41.79;100142.59;7309482;19;154945;-37
2022/05/19 07:15:46;;;;;;;24.93;2.27;;;;;;;24.37;41.88;100132.38;7308165;19;134858;-38
2022/05/19 07:18:12;;;;;;;80.07;8.07;;;;;;;24.38;42.44;100139.28;7306738;19;158262;-38
2022/05/19 07:20:43;;;;;;;36.07;3.13;;;;;;;24.39;42.33;100140.94;7307784;19;129644;-37
2022/05/19 07:23:14;;;;;;;18.65;2.00;;;;;;;24.38;42.45;100134.03;7309549;19;129149;-37
2022/05/19 07:25:41;;;;;;;30.20;2.90;;;;;;;24.41;42.66;100127.66;7305027;19;129536;-37
2022/05/19 07:28:07;;;;;;;17.80;2.05;;;;;;;24.41;42.26;100128.47;7311061;19;130391;-37
2022/05/19 07:30:32;;;;;;;36.53;3.53;;;;;;;24.41;41.84;100123.22;7309848;19;129600;-38
2022/05/19 07:32:59;;;;;;;28.43;2.60;;;;;;;24.39;42.32;100114.66;7309949;19;155101;-37
2022/05/19 07:35:24;;;;;;;50.65;4.68;;;;;;;24.40;42.45;100116.31;7309935;19;128995;-37
2022/05/19 07:37:50;;;;;;;15.93;1.85;;;;;;;24.41;42.46;100120.59;7312750;19;129298;-37
2022/05/19 07:40:16;;;;;;;19.63;2.03;;;;;;;24.39;41.94;100119.09;7311919;19;129355;-39
2022/05/19 07:42:42;;;;;;;35.27;3.27;;;;;;;24.40;41.82;100121.56;7311169;19;129036;-38
2022/05/19 07:45:08;;;;;;;24.77;2.65;;;;;;;24.41;42.28;100111.91;7310443;19;129415;-40
2022/05/19 07:47:33;;;;;;;47.22;4.07;;;;;;;24.43;41.99;100121.28;7305380;19;131696;-38
2022/05/19 07:49:59;;;;;;;23.60;2.45;;;;;;;24.42;41.70;100119.63;7310494;19;129940;-39
2022/05/19 07:52:25;;;;;;;35.17;3.27;;;;;;;24.42;42.26;100121.44;7310718;19;129457;-37
2022/05/19 07:54:50;;;;;;;51.78;3.97;;;;;;;24.41;42.05;100112.72;7307662;19;129665;-40
2022/05/19 07:57:16;;;;;;;16.67;1.65;;;;;;;24.41;42.48;100114.53;7305871;19;130107;-40
2022/05/19 07:59:41;;;;;;;33.57;3.17;;;;;;;24.42;41.84;100110.91;7307168;19;159202;-39
2022/05/19 08:02:07;;;;;;;23.90;2.47;;;;;;;24.41;42.18;100099.56;7308467;19;154930;-40
2022/05/19 08:04:33;;;;;;;20.00;1.93;;;;;;;24.37;42.61;100100.84;7310498;19;129323;-38
2022/05/19 08:06:59;;;;;;;17.17;1.58;;;;;;;24.41;41.91;100102.19;7310007;19;129895;-37
2022/05/19 08:12:16;;;;;;;26.77;2.58;;;;;;;24.44;42.33;100096.63;7308870;19;129197;-37
2022/05/19 08:17:25;;;;;;;18.33;1.67;;;;;;;24.41;41.79;100094.31;7314303;19;129348;-39
2022/05/19 08:19:50;;;;;;;25.07;2.37;;;;;;;24.42;42.18;100092.50;7315820;19;158508;-39
2022/05/19 08:22:15;;;;;;;34.23;3.10;;;;;;;24.42;42.15;100085.47;7317772;19;130482;-40
2022/05/19 08:24:46;;;;;;;21.33;2.22;;;;;;;24.42;41.83;100092.50;7315120;19;154926;-37
2022/05/19 08:27:11;;;;;;;11.55;1.40;;;;;;;24.35;42.22;100071.25;7314419;19;129537;-39
2022/05/19 08:29:37;;;;;;;22.20;2.10;;;;;;;24.43;42.46;100086.28;7315529;19;159265;-39
2022/05/19 08:32:02;;;;;;;54.33;4.67;;;;;;;24.42;42.20;100074.94;7314020;19;129733;-39
2022/05/19 08:34:27;;;;;;;18.70;2.30;;;;;;;24.41;42.29;100075.91;7315642;19;129212;-38
2022/05/19 08:36:53;;;;;;;27.93;2.50;;;;;;;24.42;42.51;100066.22;7314471;19;130555;-39
2022/05/19 08:39:18;;;;;;;27.37;2.63;;;;;;;24.41;42.17;100069.84;7315243;19;159658;-40
2022/05/19 08:41:47;;;;;;;26.90;2.57;;;;;;;24.41;42.47;100075.91;7316650;19;129738;-39
2022/05/19 08:44:30;;;;;;;29.30;2.75;;;;;;;24.41;41.95;100069.84;7314729;19;129245;-40
2022/05/19 08:46:57;;;;;;;20.20;2.05;;;;;;;24.42;42.15;100067.06;7314818;19;130047;-39
2022/05/19 08:49:36;;;;;;;21.92;2.08;;;;;;;24.46;41.80;100067.59;7316000;19;130828;-39
2022/05/19 08:52:15;;;;;;;33.35;2.85;;;;;;;24.46;42.06;100064.97;7314342;19;128950;-38
2022/05/19 08:54:46;;;;;;;21.80;2.17;;;;;;;24.44;42.04;100065.09;7314481;19;128889;-38
2022/05/19 08:57:41;;;;;;;23.45;2.35;;;;;;;24.42;41.97;100053.94;7312680;19;130279;-39
2022/05/19 09:00:17;;;;;;;31.30;2.95;;;;;;;24.40;41.84;100055.88;7315216;19;129714;-38
2022/05/19 09:03:21;;;;;;;11.03;1.40;;;;;;;24.41;41.80;100060.13;7317035;19;129708;-40
2022/05/19 09:06:26;;;;;;;35.83;3.28;;;;;;;24.33;42.42;100038.19;7314143;19;129100;-40
2022/05/19 09:09:06;;;;;;;21.85;1.80;;;;;;;24.42;41.79;100059.19;7317085;19;130585;-39
2022/05/19 09:11:55;;;;;;;16.92;1.90;;;;;;;24.41;42.11;100049.63;7313006;19;130435;-40
2022/05/19 09:14:24;;;;;;;17.80;1.73;;;;;;;24.40;42.17;100052.41;7315507;19;128817;-39
2022/05/19 09:16:51;;;;;;;21.85;2.17;;;;;;;24.39;42.23;100048.13;7313904;19;129585;-40
2022/05/19 09:19:23;;;;;;;28.77;2.63;;;;;;;24.44;41.91;100053.78;7315845;19;131478;-39
2022/05/19 09:22:11;;;;;;;24.48;2.15;;;;;;;24.45;41.86;100047.53;7316407;19;132174;-39
2022/05/19 09:24:37;;;;;;;11.68;1.27;;;;;;;24.42;41.89;100046.03;7315105;19;129292;-40
2022/05/19 09:27:04;;;;;;;26.42;2.50;;;;;;;24.32;42.09;100034.75;7311165;19;130895;-38
2022/05/19 09:29:32;;;;;;;27.30;2.53;;;;;;;24.44;42.22;100044.06;7315062;19;130202;-38
2022/05/19 09:32:06;;;;;;;31.73;2.67;;;;;;;24.42;42.35;100051.28;7312729;19;130765;-38
2022/05/19 09:34:34;;;;;;;20.23;2.03;;;;;;;24.48;41.84;100054.31;7313363;19;130279;-38
2022/05/19 09:37:02;;;;;;;18.15;1.58;;;;;;;24.44;42.17;100054.59;7312373;19;129030;-39
2022/05/19 09:39:34;;;;;;;23.17;1.92;;;;;;;24.44;42.11;100051.16;7315666;19;134424;-39
2022/05/19 09:42:05;;;;;;;26.02;2.45;;;;;;;24.43;41.90;100060.81;7314551;19;132025;-37
2022/05/19 09:44:34;;;;;;;23.92;2.13;;;;;;;24.40;42.55;100045.34;7314730;19;129032;-40
2022/05/19 09:47:14;;;;;;;12.27;1.10;;;;;;;24.41;42.10;100049.63;7313614;19;129128;-39
2022/05/19 09:49:44;;;;;;;21.17;2.05;;;;;;;24.40;42.61;100052.41;7315415;19;130407;-39
2022/05/19 09:52:17;;;;;;;24.55;2.35;;;;;;;24.43;42.51;100058.19;7312036;19;131070;-38
2022/05/19 09:54:51;;;;;;;16.95;1.60;;;;;;;24.44;42.21;100038.81;7313708;19;129233;-39
2022/05/19 09:57:22;;;;;;;30.92;3.05;;;;;;;24.41;41.95;100039.09;7310055;19;128955;-40
2022/05/19 09:59:50;;;;;;;10.27;1.40;;;;;;;24.45;42.15;100040.47;7313099;19;130783;-39
2022/05/19 10:02:21;;;;;;;18.02;2.15;;;;;;;24.45;42.24;100040.47;7313262;19;130348;-40
2022/05/19 10:04:53;;;;;;;23.60;2.22;;;;;;;24.44;42.10;100038.81;7314076;19;129040;-40
2022/05/19 10:07:24;;;;;;;30.42;2.78;;;;;;;24.43;42.14;100031.91;7311976;19;129601;-40
2022/05/19 10:09:51;;;;;;;21.95;2.00;;;;;;;24.42;42.46;100032.91;7315230;19;130475;-38
2022/05/19 10:12:29;;;;;;;26.70;2.50;;;;;;;24.37;42.38;100026.41;7311279;19;130325;-39
2022/05/19 10:14:58;;;;;;;;;;;;;;;24.42;42.14;100035.53;7314291;19;129228;-40
2022/05/19 10:17:51;;;;;;;28.00;2.78;;;;;;;24.43;42.45;100037.16;7310456;19;129110;-39
2022/05/19 10:20:22;;;;;;;21.60;2.08;;;;;;;24.42;42.06;100030.28;7313584;19;130240;-40
2022/05/19 10:23:35;;;;;;;18.73;1.60;;;;;;;24.43;42.35;100026.66;7314544;19;129724;-39
2022/05/19 10:26:15;;;;;;;19.88;1.63;;;;;;;24.41;41.95;100023.34;7311262;19;129019;-39
2022/05/19 10:32:05;;;;;;;19.00;1.80;;;;;;;24.40;41.90;100019.06;7311364;19;129579;-40
2022/05/19 10:34:48;;;;;;;22.27;2.17;;;;;;;24.42;42.17;100017.13;7312651;19;130169;-39
2022/05/19 10:37:54;;;;;;;21.13;2.05;;;;;;;24.43;42.10;100016.13;7311698;19;129071;-37
2022/05/19 10:40:47;;;;;;;27.05;2.53;;;;;;;24.42;42.19;100009.25;7311143;19;129417;-40
2022/05/19 10:43:29;;;;;;;22.25;2.40;;;;;;;24.37;42.47;99998.34;7312964;19;129255;-39
2022/05/19 10:45:58;;;;;;;15.88;1.38;;;;;;;24.40;42.21;100005.94;7313430;19;129493;-40
2022/05/19 10:48:51;;;;;;;25.67;2.13;;;;;;;24.42;42.54;100004.00;7314186;19;129010;-38
2022/05/19 10:51:30;;;;;;;24.38;2.17;;;;;;;24.43;41.84;99996.91;7311933;19;129298;-39
2022/05/19 10:54:25;;;;;;;18.45;1.52;;;;;;;24.41;42.16;100002.31;7313783;19;129585;-39
2022/05/19 10:57:08;;;;;;;20.27;1.85;;;;;;;24.41;41.93;99996.25;7310320;19;129656;-40
2022/05/19 11:00:15;;;;;;;21.85;2.10;;;;;;;24.47;41.79;99990.38;7313484;19;129604;-40
2022/05/19 11:03:02;;;;;;;24.55;2.22;;;;;;;24.47;42.22;99977.25;7311516;19;129404;-38
2022/05/19 11:05:44;;;;;;;37.17;3.35;;;;;;;24.47;41.76;99972.00;7311148;19;129437;-40
2022/05/19 11:08:25;;;;;;;21.05;1.83;;;;;;;24.48;42.46;99980.72;7313132;19;130294;-38
2022/05/19 11:10:59;;;;;;;22.02;2.00;;;;;;;24.46;41.83;99968.53;7311768;19;129207;-39
2022/05/19 11:13:44;;;;;;;21.85;2.00;;;;;;;24.42;42.10;99975.06;7312863;19;129377;-39
2022/05/19 11:16:32;;;;;;;20.27;2.10;;;;;;;24.42;42.03;99961.94;7311104;19;130241;-39
2022/05/19 11:19:07;;;;;;;16.13;1.52;;;;;;;24.43;41.85;99960.94;7312726;19;130615;-39
2022/05/19 11:21:39;;;;;;;13.20;1.33;;;;;;;24.46;42.48;99973.78;7312070;19;129008;-40
2022/05/19 11:24:12;;;;;;;33.58;3.20;;;;;;;24.46;41.88;99958.00;7310848;19;129110;-38
2022/05/19 11:27:14;;;;;;;17.00;1.73;;;;;;;24.42;42.35;99954.03;7309132;19;158609;-38
2022/05/19 11:29:54;;;;;;;18.63;1.80;;;;;;;24.46;42.52;99955.38;7312526;19;129936;-39
2022/05/19 11:32:22;;;;;;;29.83;2.67;;;;;;;24.45;41.77;99955.53;7309928;19;128839;-38
2022/05/19 11:34:55;;;;;;;19.25;1.75;;;;;;;24.43;42.49;99947.81;7312500;19;129819;-39